createdAt,value
2023-02-17T00:00:49.207Z,22.90
2023-02-17T00:03:15.831Z,23.60
2023-02-17T00:05:42.414Z,31.60
2023-02-17T00:08:09.807Z,26.30
2023-02-17T00:10:38.698Z,23.90
2023-02-17T00:13:05.253Z,25.70
2023-02-17T00:15:33.962Z,27.90
2023-02-17T00:18:00.672Z,28.70
2023-02-17T00:20:30.782Z,22.50
2023-02-17T00:22:57.755Z,22.30
2023-02-17T00:25:24.485Z,21.90
2023-02-17T00:27:51.323Z,20.10
2023-02-17T00:30:18.219Z,22.90
2023-02-17T00:32:44.931Z,20.20
2023-02-17T00:35:12.582Z,19.20
2023-02-17T00:37:45.404Z,19.80
2023-02-17T00:40:12.830Z,22.30
2023-02-17T00:42:43.788Z,20.20
2023-02-17T00:45:10.422Z,19.70
2023-02-17T00:47:37.030Z,20.40
2023-02-17T00:50:05.154Z,19.80
2023-02-17T00:52:31.802Z,21.40
2023-02-17T00:54:58.411Z,25.60
2023-02-17T00:57:25.688Z,32.30
2023-02-17T00:59:53.093Z,26.70
2023-02-17T01:02:19.725Z,24.10
2023-02-17T01:04:46.330Z,23.60
2023-02-17T01:07:15.347Z,21.00
2023-02-17T01:09:42.260Z,20.20
2023-02-17T01:12:11.805Z,21.00
2023-02-17T01:14:38.640Z,20.80
2023-02-17T01:17:05.844Z,23.20
2023-02-17T01:19:32.842Z,34.10
2023-02-17T01:21:59.535Z,34.50
2023-02-17T01:24:27.003Z,30.30
2023-02-17T01:26:53.772Z,29.20
2023-02-17T01:29:21.163Z,29.00
2023-02-17T01:31:48.314Z,29.10
2023-02-17T01:34:17.728Z,27.00
2023-02-17T01:36:44.907Z,22.30
2023-02-17T01:39:14.688Z,20.70
2023-02-17T01:41:41.864Z,22.40
2023-02-17T01:44:18.791Z,26.10
2023-02-17T01:46:46.750Z,28.60
2023-02-17T01:49:18.279Z,25.00
2023-02-17T01:51:49.178Z,24.40
2023-02-17T01:54:18.932Z,23.50
2023-02-17T01:56:46.531Z,24.90
2023-02-17T01:59:20.449Z,21.40
2023-02-17T02:01:50.315Z,25.00
2023-02-17T02:04:18.615Z,23.90
2023-02-17T02:06:47.620Z,23.70
2023-02-17T02:09:27.631Z,24.80
2023-02-17T02:11:59.357Z,26.80
2023-02-17T02:14:31.317Z,25.90
2023-02-17T02:17:20.787Z,24.60
2023-02-17T02:19:56.696Z,26.50
2023-02-17T02:22:34.158Z,24.90
2023-02-17T02:25:13.171Z,26.50
2023-02-17T02:27:43.145Z,25.30
2023-02-17T02:30:25.731Z,28.40
2023-02-17T02:32:57.230Z,30.70
2023-02-17T02:35:28.288Z,25.80
2023-02-17T02:38:00.929Z,29.80
2023-02-17T02:40:30.565Z,26.00
2023-02-17T02:42:57.319Z,28.30
2023-02-17T02:45:24.028Z,28.20
2023-02-17T02:47:52.388Z,27.40
2023-02-17T02:50:38.687Z,25.30
2023-02-17T02:53:31.592Z,26.50
2023-02-17T02:56:05.694Z,21.80
2023-02-17T03:01:13.364Z,25.50
2023-02-17T03:03:48.932Z,23.30
2023-02-17T03:06:22.488Z,25.20
2023-02-17T03:09:08.786Z,25.30
2023-02-17T03:11:36.106Z,23.80
2023-02-17T03:14:11.577Z,25.80
2023-02-17T03:16:39.324Z,23.40
2023-02-17T03:19:06.557Z,25.60
2023-02-17T03:21:38.091Z,23.60
2023-02-17T03:24:05.886Z,25.20
2023-02-17T03:26:32.715Z,26.50
2023-02-17T03:29:01.153Z,25.70
2023-02-17T03:31:30.912Z,29.50
2023-02-17T03:33:58.795Z,29.10
2023-02-17T03:36:25.641Z,31.60
2023-02-17T03:38:56.485Z,32.10
2023-02-17T03:41:23.307Z,31.30
2023-02-17T03:43:50.101Z,27.90
2023-02-17T03:46:17.056Z,27.50
2023-02-17T03:48:43.907Z,28.00
2023-02-17T03:51:18.388Z,24.20
2023-02-17T03:53:49.431Z,30.10
2023-02-17T03:56:16.484Z,31.20
2023-02-17T03:58:43.625Z,29.30
2023-02-17T04:01:11.660Z,33.20
2023-02-17T04:03:40.486Z,31.80
2023-02-17T04:06:09.191Z,34.30
2023-02-17T04:08:38.570Z,32.30
2023-02-17T04:11:08.746Z,33.60
2023-02-17T04:13:39.512Z,28.60
2023-02-17T04:16:10.717Z,35.00
2023-02-17T04:18:41.252Z,31.70
2023-02-17T04:21:11.680Z,35.20
2023-02-17T04:23:40.223Z,38.40
2023-02-17T04:26:08.704Z,32.40
2023-02-17T04:28:41.129Z,35.50
2023-02-17T04:31:10.096Z,37.70
2023-02-17T04:33:41.030Z,34.90
2023-02-17T04:36:11.735Z,33.70
2023-02-17T04:38:41.714Z,36.60
2023-02-17T04:41:11.783Z,36.50
2023-02-17T04:43:41.105Z,32.30
2023-02-17T04:46:11.215Z,36.30
2023-02-17T04:48:43.787Z,37.30
2023-02-17T04:51:13.041Z,33.50
2023-02-17T04:53:42.392Z,34.50
2023-02-17T04:56:12.179Z,37.60
2023-02-17T04:58:41.945Z,36.60
2023-02-17T05:01:10.864Z,39.40
2023-02-17T05:03:39.784Z,38.80
2023-02-17T05:22:55.747Z,38.80
2023-02-17T05:25:24.107Z,35.10
2023-02-17T05:27:53.087Z,37.70
2023-02-17T05:30:21.339Z,36.20
2023-02-17T05:32:51.209Z,35.80
2023-02-17T05:35:19.909Z,36.00
2023-02-17T05:37:47.961Z,33.80
2023-02-17T05:40:16.832Z,36.80
2023-02-17T05:42:45.477Z,37.70
2023-02-17T05:45:13.603Z,38.80
2023-02-17T05:47:41.760Z,36.70
2023-02-17T05:50:10.497Z,35.60
2023-02-17T05:52:38.772Z,37.30
2023-02-17T05:55:07.284Z,40.10
2023-02-17T05:57:35.835Z,42.10
2023-02-17T06:00:04.777Z,40.70
2023-02-17T06:02:40.254Z,41.40
2023-02-17T06:05:09.475Z,41.20
2023-02-17T06:07:38.972Z,44.60
2023-02-17T06:10:08.695Z,47.40
2023-02-17T06:12:36.874Z,44.80
2023-02-17T06:15:05.627Z,39.90
2023-02-17T06:17:34.276Z,42.20
2023-02-17T06:20:02.307Z,45.40
2023-02-17T06:24:17.694Z,42.10
2023-02-17T06:26:45.914Z,48.60
2023-02-17T06:29:13.943Z,44.60
2023-02-17T06:31:43.319Z,46.70
2023-02-17T06:34:12.177Z,44.60
2023-02-17T06:36:41.250Z,46.50
2023-02-17T06:39:09.414Z,44.70
2023-02-17T06:41:37.600Z,43.90
2023-02-17T06:44:14.159Z,46.40
2023-02-17T06:46:46.183Z,45.20
2023-02-17T06:49:14.823Z,43.80
2023-02-17T06:51:43.913Z,47.60
2023-02-17T06:54:12.398Z,49.70
2023-02-17T06:56:40.541Z,54.80
2023-02-17T06:59:08.741Z,52.10
2023-02-17T07:01:37.664Z,46.70
2023-02-17T07:04:06.200Z,46.40
2023-02-17T07:06:38.925Z,50.60
2023-02-17T07:09:07.520Z,48.60
2023-02-17T07:11:36.009Z,47.60
2023-02-17T07:14:05.516Z,48.80
2023-02-17T07:16:33.824Z,46.30
2023-02-17T07:19:05.210Z,43.10
2023-02-17T07:21:34.285Z,45.10
2023-02-17T07:24:03.468Z,44.80
2023-02-17T07:26:36.925Z,47.90
2023-02-17T07:29:05.290Z,54.10
2023-02-17T07:31:34.263Z,52.80
2023-02-17T07:34:02.901Z,50.30
2023-02-17T07:36:33.814Z,50.10
2023-02-17T07:39:03.422Z,55.60
2023-02-17T07:41:33.701Z,50.90
2023-02-17T07:44:06.958Z,51.70
2023-02-17T07:46:35.095Z,52.60
2023-02-17T07:49:03.178Z,54.80
2023-02-17T07:51:31.280Z,54.10
2023-02-17T07:54:00.836Z,47.70
2023-02-17T07:56:30.225Z,49.90
2023-02-17T07:58:59.672Z,48.70
2023-02-17T08:01:28.047Z,47.00
2023-02-17T08:04:03.231Z,49.40
2023-02-17T08:06:33.828Z,50.60
2023-02-17T08:09:20.636Z,52.00
2023-02-17T08:12:07.564Z,48.40
2023-02-17T08:14:37.397Z,47.70
2023-02-17T08:17:06.940Z,43.80
2023-02-17T08:19:47.529Z,46.60
2023-02-17T08:22:20.370Z,44.70
2023-02-17T08:24:49.495Z,49.70
2023-02-17T08:27:18.224Z,51.10
2023-02-17T08:29:46.593Z,48.10
2023-02-17T08:32:15.255Z,50.70
2023-02-17T08:34:44.474Z,47.20
2023-02-17T08:37:12.623Z,52.90
2023-02-17T08:39:40.986Z,51.30
2023-02-17T08:42:09.515Z,49.90
2023-02-17T08:44:38.565Z,47.70
2023-02-17T08:47:11.908Z,48.50
2023-02-17T08:49:40.024Z,54.40
2023-02-17T08:52:08.683Z,45.60
2023-02-17T08:54:37.774Z,48.30
2023-02-17T08:57:06.772Z,42.40
2023-02-17T08:59:35.151Z,46.40
2023-02-17T09:02:04.271Z,44.10
2023-02-17T09:04:32.749Z,45.00
2023-02-17T09:07:01.298Z,49.20
2023-02-17T09:09:29.897Z,41.80
2023-02-17T09:11:58.828Z,43.60
2023-02-17T09:14:27.955Z,39.90
2023-02-17T09:16:57.119Z,42.20
2023-02-17T09:19:27.166Z,43.80
2023-02-17T09:21:56.048Z,45.30
2023-02-17T09:24:24.137Z,42.10
2023-02-17T09:26:52.175Z,48.70
2023-02-17T09:29:20.415Z,46.70
2023-02-17T09:31:48.640Z,47.00
2023-02-17T09:34:17.384Z,41.90
2023-02-17T09:36:46.233Z,42.30
2023-02-17T09:39:15.079Z,41.80
2023-02-17T09:41:48.031Z,36.90
2023-02-17T09:44:45.684Z,41.60
2023-02-17T09:47:25.306Z,39.60
2023-02-17T09:49:59.091Z,42.40
2023-02-17T09:52:53.771Z,39.50
2023-02-17T09:55:30.076Z,38.60
2023-02-17T09:58:07.071Z,39.00
2023-02-17T10:00:38.356Z,41.80
2023-02-17T10:03:18.909Z,41.40
2023-02-17T10:05:58.862Z,40.80
2023-02-17T10:08:30.819Z,39.70
2023-02-17T10:11:05.404Z,40.70
2023-02-17T10:13:38.280Z,37.10
2023-02-17T10:16:09.932Z,41.00
2023-02-17T10:18:46.867Z,42.10
2023-02-17T10:21:25.395Z,38.60
2023-02-17T10:23:53.997Z,38.00
2023-02-17T10:26:40.897Z,39.00
2023-02-17T10:29:31.226Z,41.70
2023-02-17T10:32:11.657Z,41.40
2023-02-17T10:35:03.513Z,43.00
2023-02-17T10:37:47.673Z,40.60
2023-02-17T10:40:17.643Z,34.90
2023-02-17T10:42:47.910Z,37.10
2023-02-17T10:45:21.900Z,35.50
2023-02-17T10:50:22.683Z,35.90
2023-02-17T10:52:51.201Z,44.20
2023-02-17T10:55:38.569Z,39.60
2023-02-17T10:58:25.525Z,37.70
2023-02-17T11:00:56.617Z,38.40
2023-02-17T11:03:27.312Z,38.50
2023-02-17T11:06:02.744Z,43.20
2023-02-17T11:08:39.846Z,34.70
2023-02-17T11:11:17.485Z,40.00
2023-02-17T11:14:05.941Z,45.00
2023-02-17T11:16:59.063Z,38.40
2023-02-17T11:19:28.954Z,34.00
2023-02-17T11:21:58.940Z,41.00
2023-02-17T11:24:28.673Z,37.60
2023-02-17T11:26:58.573Z,35.40
2023-02-17T11:29:30.367Z,42.80
2023-02-17T11:32:08.513Z,40.90
2023-02-17T11:34:39.126Z,38.70
2023-02-17T11:37:13.382Z,42.10
2023-02-17T11:39:49.542Z,37.10
2023-02-17T11:42:37.745Z,40.30
2023-02-17T11:45:19.083Z,43.30
2023-02-17T11:48:19.885Z,38.10
2023-02-17T11:51:14.415Z,42.90
2023-02-17T11:53:45.766Z,47.30
2023-02-17T11:56:17.251Z,40.90
2023-02-17T11:58:54.809Z,44.80
2023-02-17T12:01:43.906Z,41.90
2023-02-17T12:04:31.295Z,43.60
2023-02-17T12:07:26.206Z,45.60
2023-02-17T12:10:11.191Z,40.80
2023-02-17T12:13:04.695Z,41.50
2023-02-17T12:15:45.140Z,43.70
2023-02-17T12:20:54.585Z,44.20
2023-02-17T12:23:38.607Z,41.90
2023-02-17T12:26:32.128Z,43.00
2023-02-17T12:29:11.452Z,45.30
2023-02-17T12:32:17.632Z,42.40
2023-02-17T12:35:30.858Z,42.70
2023-02-17T12:38:02.166Z,45.60
2023-02-17T12:40:52.473Z,47.40
2023-02-17T12:43:27.229Z,46.00
2023-02-17T12:45:57.574Z,45.80
2023-02-17T12:48:37.210Z,46.30
2023-02-17T12:51:15.567Z,48.70
2023-02-17T12:53:49.701Z,48.70
2023-02-17T12:56:21.034Z,50.40
2023-02-17T12:58:49.881Z,43.10
2023-02-17T13:01:19.986Z,45.80
2023-02-17T13:03:49.938Z,49.60
2023-02-17T13:06:25.819Z,46.20
2023-02-17T13:09:13.884Z,46.20
2023-02-17T13:11:41.983Z,47.50
2023-02-17T13:14:12.246Z,42.20
2023-02-17T13:16:44.865Z,50.30
2023-02-17T13:19:14.636Z,45.40
2023-02-17T13:21:54.349Z,62.80
2023-02-17T13:24:39.212Z,58.80
2023-02-17T13:27:40.161Z,52.60
2023-02-17T13:30:29.132Z,46.20
2023-02-17T13:33:05.556Z,44.90
2023-02-17T13:35:36.185Z,44.30
2023-02-17T13:38:04.248Z,41.70
2023-02-17T13:40:35.922Z,46.00
2023-02-17T13:43:18.125Z,45.80
2023-02-17T13:46:04.053Z,52.20
2023-02-17T13:48:34.554Z,45.30
2023-02-17T13:51:07.164Z,47.20
2023-02-17T13:53:40.246Z,47.80
2023-02-17T13:56:12.066Z,47.90
2023-02-17T13:58:42.044Z,51.90
2023-02-17T14:01:18.375Z,51.20
2023-02-17T14:03:51.660Z,56.60
2023-02-17T14:06:40.667Z,49.50
2023-02-17T14:09:32.005Z,78.30
2023-02-17T14:12:02.780Z,61.80
2023-02-17T14:14:33.003Z,61.30
2023-02-17T14:17:32.791Z,67.10
2023-02-17T14:20:04.714Z,62.00
2023-02-17T14:22:34.985Z,61.00
2023-02-17T14:25:13.514Z,65.60
2023-02-17T14:27:49.928Z,58.60
2023-02-17T14:30:37.829Z,56.10
2023-02-17T14:33:07.348Z,60.90
2023-02-17T14:35:35.598Z,66.00
2023-02-17T14:38:09.205Z,57.10
2023-02-17T14:40:40.009Z,58.80
2023-02-17T14:43:09.069Z,62.30
2023-02-17T14:45:37.494Z,59.60
2023-02-17T14:48:07.159Z,62.70
2023-02-17T14:50:42.493Z,58.30
2023-02-17T14:53:32.815Z,55.50
2023-02-17T14:56:02.682Z,62.00
2023-02-17T14:58:35.768Z,66.40
2023-02-17T15:01:05.966Z,73.50
2023-02-17T15:03:34.218Z,70.80
2023-02-17T15:06:02.558Z,67.20
2023-02-17T15:08:34.438Z,75.00
2023-02-17T15:11:02.825Z,59.50
2023-02-17T15:13:32.190Z,62.80
2023-02-17T15:16:09.362Z,61.90
2023-02-17T15:18:42.768Z,64.50
2023-02-17T15:21:28.077Z,66.20
2023-02-17T15:24:18.325Z,63.20
2023-02-17T15:26:48.363Z,58.70
2023-02-17T15:29:24.051Z,53.70
2023-02-17T15:31:55.877Z,54.10
2023-02-17T15:34:26.710Z,52.40
2023-02-17T15:36:54.811Z,56.60
2023-02-17T15:39:23.131Z,50.30
2023-02-17T15:41:52.420Z,45.40
2023-02-17T15:44:25.480Z,41.90
2023-02-17T15:46:55.127Z,47.70
2023-02-17T15:49:23.349Z,39.80
2023-02-17T15:51:51.513Z,39.00
2023-02-17T15:54:20.664Z,45.20
2023-02-17T15:56:50.945Z,48.40
2023-02-17T15:59:24.342Z,52.50
2023-02-17T16:01:56.146Z,54.70
2023-02-17T16:04:24.383Z,41.10
2023-02-17T16:06:52.554Z,38.20
2023-02-17T16:09:21.815Z,37.80
2023-02-17T16:11:51.910Z,34.30
2023-02-17T16:14:28.639Z,32.50
2023-02-17T16:17:00.150Z,32.40
2023-02-17T16:19:28.691Z,32.50
2023-02-17T16:21:57.046Z,27.90
2023-02-17T16:24:25.089Z,31.40
2023-02-17T16:26:53.946Z,32.30
2023-02-17T16:29:22.302Z,28.70
2023-02-17T16:31:50.620Z,29.10
2023-02-17T16:34:23.591Z,26.90
2023-02-17T16:36:53.761Z,26.40
2023-02-17T16:39:22.399Z,27.10
2023-02-17T16:41:50.685Z,30.60
2023-02-17T16:44:20.948Z,27.70
2023-02-17T16:46:53.378Z,27.90
2023-02-17T16:49:32.093Z,26.50
2023-02-17T16:52:05.490Z,28.10
2023-02-17T16:54:35.738Z,31.90
2023-02-17T16:57:04.017Z,33.90
2023-02-17T16:59:33.061Z,27.90
2023-02-17T17:02:01.942Z,26.90
2023-02-17T17:04:30.280Z,25.90
2023-02-17T17:06:58.999Z,31.70
2023-02-17T17:09:28.144Z,29.50
2023-02-17T17:11:57.550Z,25.90
2023-02-17T17:14:25.776Z,27.30
2023-02-17T17:17:01.125Z,30.60
2023-02-17T17:19:29.549Z,27.60
2023-02-17T17:21:57.722Z,30.80
2023-02-17T17:24:26.137Z,30.20
2023-02-17T17:26:56.056Z,29.20
2023-02-17T17:29:25.050Z,31.40
2023-02-17T17:31:53.310Z,32.50
2023-02-17T17:34:21.822Z,36.10
2023-02-17T17:36:49.953Z,34.20
2023-02-17T17:39:20.920Z,30.80
2023-02-17T17:41:49.791Z,28.90
2023-02-17T17:44:18.148Z,31.10
2023-02-17T17:46:46.655Z,32.10
2023-02-17T17:49:14.932Z,29.70
2023-02-17T17:51:43.414Z,29.60
2023-02-17T17:54:11.605Z,36.50
2023-02-17T17:56:43.074Z,33.50
2023-02-17T17:59:12.860Z,33.10
2023-02-17T18:01:43.910Z,33.40
2023-02-17T18:04:13.944Z,33.30
2023-02-17T18:06:47.635Z,39.10
2023-02-17T18:09:31.147Z,34.60
2023-02-17T18:12:12.711Z,32.80
2023-02-17T18:14:42.471Z,35.10
2023-02-17T18:17:12.072Z,36.00
2023-02-17T18:19:40.170Z,36.60
2023-02-17T18:22:08.324Z,32.90
2023-02-17T18:24:36.693Z,32.30
2023-02-17T18:34:59.497Z,33.60
2023-02-17T18:37:27.960Z,30.80
2023-02-17T18:42:21.664Z,33.50
2023-02-17T18:44:49.844Z,29.20
2023-02-17T18:47:18.217Z,30.80
2023-02-17T18:49:46.937Z,29.20
2023-02-17T18:52:15.110Z,32.30
2023-02-17T18:54:45.198Z,32.40
2023-02-17T18:57:16.791Z,35.50
2023-02-17T18:59:45.975Z,28.20
2023-02-17T19:02:14.257Z,33.80
2023-02-17T19:04:45.078Z,35.10
2023-02-17T19:07:13.573Z,34.70
2023-02-17T19:09:45.014Z,38.20
2023-02-17T19:12:13.807Z,34.30
2023-02-17T19:14:42.742Z,34.00
2023-02-17T19:17:12.300Z,33.00
2023-02-17T19:19:41.287Z,33.00
2023-02-17T19:22:09.882Z,34.90
2023-02-17T19:24:39.071Z,32.90
2023-02-17T19:27:07.100Z,38.90
2023-02-17T19:29:35.528Z,38.70
2023-02-17T19:32:04.662Z,34.60
2023-02-17T19:34:34.388Z,39.80
2023-02-17T19:37:03.130Z,36.40
2023-02-17T19:39:31.819Z,37.80
2023-02-17T19:42:00.375Z,36.90
2023-02-17T19:44:30.518Z,37.80
2023-02-17T19:46:59.014Z,41.80
2023-02-17T19:49:27.239Z,37.60
2023-02-17T19:51:56.020Z,38.00
2023-02-17T19:54:24.867Z,35.50
2023-02-17T19:56:53.358Z,36.00
2023-02-17T19:59:21.523Z,35.40
2023-02-17T20:01:49.673Z,36.10
2023-02-17T20:04:17.774Z,34.90
2023-02-17T20:06:48.043Z,37.50
2023-02-17T20:09:18.265Z,37.10
2023-02-17T20:11:47.518Z,39.10
2023-02-17T20:14:16.921Z,40.10
2023-02-17T20:16:48.888Z,41.20
2023-02-17T20:19:17.369Z,38.30
2023-02-17T20:21:46.014Z,39.80
2023-02-17T20:24:15.662Z,35.40
2023-02-17T20:26:45.610Z,38.80
2023-02-17T20:29:16.326Z,42.70
2023-02-17T20:31:52.509Z,38.10
2023-02-17T20:34:35.933Z,42.50
2023-02-17T20:39:35.918Z,43.20
2023-02-17T20:42:04.438Z,44.00
2023-02-17T20:44:32.881Z,38.60
2023-02-17T20:47:01.499Z,40.30
2023-02-17T20:49:30.384Z,39.40
2023-02-17T20:51:59.420Z,42.80
2023-02-17T20:54:27.606Z,43.50
2023-02-17T20:56:58.212Z,37.60
2023-02-17T20:59:27.311Z,39.80
2023-02-17T21:01:55.900Z,41.60
2023-02-17T21:04:25.633Z,40.50
2023-02-17T21:06:54.096Z,39.40
2023-02-17T21:09:22.560Z,46.60
2023-02-17T21:11:51.104Z,42.20
2023-02-17T21:14:19.271Z,43.10
2023-02-17T21:16:47.934Z,40.00
2023-02-17T21:19:16.800Z,52.60
2023-02-17T21:21:46.712Z,46.20
2023-02-17T21:24:14.792Z,50.10
2023-02-17T21:26:43.494Z,44.50
2023-02-17T21:29:11.744Z,49.50
2023-02-17T21:31:39.988Z,51.70
2023-02-17T21:34:09.230Z,55.60
2023-02-17T21:36:37.368Z,55.30
2023-02-17T21:39:05.614Z,57.00
2023-02-17T21:41:34.592Z,61.00
2023-02-17T21:44:22.877Z,56.30
2023-02-17T21:46:52.024Z,59.90
2023-02-17T21:49:20.230Z,70.40
2023-02-17T21:51:48.367Z,66.30
2023-02-17T21:54:17.050Z,65.00
2023-02-17T21:56:46.355Z,68.70
2023-02-17T21:59:14.649Z,59.60
2023-02-17T22:01:43.119Z,61.60
2023-02-17T22:04:11.537Z,66.80
2023-02-17T22:06:40.844Z,65.10
2023-02-17T22:09:10.049Z,68.60
2023-02-17T22:11:39.946Z,64.50
2023-02-17T22:14:12.115Z,68.70
2023-02-17T22:16:40.348Z,64.20
2023-02-17T22:19:10.672Z,62.20
2023-02-17T22:21:38.707Z,66.10
2023-02-17T22:24:08.475Z,67.00
2023-02-17T22:26:36.823Z,60.40
2023-02-17T22:29:05.143Z,59.70
2023-02-17T22:31:34.530Z,61.30
2023-02-17T22:34:07.947Z,62.20
2023-02-17T22:36:37.053Z,66.70
2023-02-17T22:39:06.367Z,57.10
2023-02-17T22:41:35.075Z,57.90
2023-02-17T22:44:03.494Z,62.10
2023-02-17T22:46:31.662Z,59.50
2023-02-17T22:49:00.301Z,59.70
2023-02-17T22:51:34.998Z,57.80
2023-02-17T22:54:03.492Z,64.20
2023-02-17T22:56:36.250Z,57.60
2023-02-17T22:59:06.130Z,60.90
2023-02-17T23:01:35.588Z,59.30
2023-02-17T23:04:04.167Z,64.60
2023-02-17T23:06:34.325Z,62.30
2023-02-17T23:09:02.685Z,57.70
2023-02-17T23:11:51.540Z,59.90
2023-02-17T23:14:33.760Z,57.40
2023-02-17T23:17:04.818Z,53.70
2023-02-17T23:19:36.441Z,57.10
2023-02-17T23:22:14.622Z,55.60
2023-02-17T23:24:44.244Z,62.50
2023-02-17T23:27:12.631Z,63.20
2023-02-17T23:29:41.522Z,62.90
2023-02-17T23:32:10.788Z,64.40
2023-02-17T23:34:40.427Z,64.80
2023-02-17T23:37:08.521Z,59.10
2023-02-17T23:39:38.214Z,58.80
2023-02-17T23:42:08.191Z,64.70
2023-02-17T23:44:37.964Z,62.20
2023-02-17T23:47:06.623Z,68.00
2023-02-17T23:49:35.077Z,63.30
2023-02-17T23:52:03.325Z,61.10
2023-02-17T23:54:31.391Z,66.40
2023-02-17T23:56:59.649Z,66.60
2023-02-17T23:59:27.891Z,68.70
